createdAt,value
2023-03-11T00:00:13.569Z,99.80
2023-03-11T00:02:41.014Z,99.90
2023-03-11T00:05:08.740Z,99.90
2023-03-11T00:07:37.656Z,99.90
2023-03-11T00:10:04.860Z,99.90
2023-03-11T00:12:31.565Z,99.90
2023-03-11T00:14:58.234Z,99.90
2023-03-11T00:17:24.942Z,99.90
2023-03-11T00:19:51.717Z,99.90
2023-03-11T00:22:18.493Z,99.90
2023-03-11T00:24:45.234Z,99.90
2023-03-11T00:27:11.914Z,99.90
2023-03-11T00:29:38.684Z,99.90
2023-03-11T00:32:05.707Z,99.90
2023-03-11T00:34:32.421Z,99.90
2023-03-11T00:36:59.139Z,99.90
2023-03-11T00:39:25.927Z,99.90
2023-03-11T00:41:53.697Z,99.90
2023-03-11T00:44:20.403Z,99.90
2023-03-11T00:46:47.119Z,99.90
2023-03-11T00:49:13.947Z,99.90
2023-03-11T00:51:40.726Z,99.90
2023-03-11T00:54:07.458Z,99.90
2023-03-11T00:56:34.317Z,99.90
2023-03-11T00:59:01.042Z,99.90
2023-03-11T01:01:27.880Z,99.90
2023-03-11T01:03:54.660Z,99.90
2023-03-11T01:06:21.479Z,99.90
2023-03-11T01:08:48.159Z,99.90
2023-03-11T01:11:14.946Z,99.90
2023-03-11T01:13:41.666Z,99.90
2023-03-11T01:16:09.378Z,99.90
2023-03-11T01:18:36.423Z,99.90
2023-03-11T01:21:03.382Z,99.90
2023-03-11T01:23:30.156Z,99.90
2023-03-11T01:25:56.902Z,99.90
2023-03-11T01:28:23.722Z,99.90
2023-03-11T01:30:50.579Z,99.90
2023-03-11T01:33:19.476Z,99.90
2023-03-11T01:35:49.143Z,99.90
2023-03-11T01:38:17.207Z,99.90
2023-03-11T01:40:49.834Z,99.90
2023-03-11T01:43:44.646Z,99.90
2023-03-11T01:46:27.900Z,99.90
2023-03-11T01:49:00.580Z,99.90
2023-03-11T01:51:40.497Z,99.90
2023-03-11T01:54:21.369Z,99.90
2023-03-11T01:56:50.303Z,99.90
2023-03-11T01:59:24.314Z,99.90
2023-03-11T02:02:06.820Z,99.90
2023-03-11T02:04:35.165Z,99.90
2023-03-11T02:07:02.674Z,99.90
2023-03-11T02:09:29.328Z,99.90
2023-03-11T02:11:56.973Z,99.90
2023-03-11T02:14:25.411Z,99.90
2023-03-11T02:16:52.115Z,99.90
2023-03-11T02:19:42.695Z,99.90
2023-03-11T02:22:11.655Z,99.90
2023-03-11T02:24:49.265Z,99.90
2023-03-11T02:27:17.645Z,99.90
2023-03-11T02:29:48.035Z,99.90
2023-03-11T02:32:15.093Z,99.90
2023-03-11T02:34:42.145Z,99.90
2023-03-11T02:37:11.435Z,99.90
2023-03-11T02:39:42.621Z,99.90
2023-03-11T02:42:28.420Z,99.90
2023-03-11T02:45:04.563Z,99.90
2023-03-11T02:47:32.417Z,99.90
2023-03-11T02:49:59.104Z,99.90
2023-03-11T02:52:28.175Z,99.90
2023-03-11T02:54:55.192Z,99.90
2023-03-11T02:57:21.865Z,99.90
2023-03-11T02:59:48.599Z,99.90
2023-03-11T03:02:15.283Z,99.90
2023-03-11T03:04:42.046Z,99.90
2023-03-11T03:07:09.278Z,99.90
2023-03-11T03:09:36.959Z,99.90
2023-03-11T03:12:04.894Z,99.90
2023-03-11T03:14:32.191Z,99.90
2023-03-11T03:16:59.100Z,99.90
2023-03-11T03:19:25.862Z,99.90
2023-03-11T03:21:52.531Z,99.90
2023-03-11T03:24:20.443Z,99.90
2023-03-11T03:26:47.196Z,99.90
2023-03-11T03:29:13.958Z,99.90
2023-03-11T03:31:40.726Z,99.90
2023-03-11T03:34:08.066Z,99.90
2023-03-11T03:36:34.970Z,99.90
2023-03-11T03:39:01.695Z,99.90
2023-03-11T03:41:28.588Z,99.90
2023-03-11T03:43:55.512Z,99.90
2023-03-11T03:46:22.562Z,99.90
2023-03-11T03:48:49.390Z,99.90
2023-03-11T03:51:16.550Z,99.90
2023-03-11T03:53:44.037Z,99.90
2023-03-11T03:56:13.116Z,99.90
2023-03-11T03:58:40.031Z,99.90
2023-03-11T04:01:07.367Z,99.90
2023-03-11T04:03:35.303Z,99.90
2023-03-11T04:06:24.711Z,99.90
2023-03-11T04:08:52.597Z,99.90
2023-03-11T04:11:19.613Z,99.90
2023-03-11T04:13:46.673Z,99.90
2023-03-11T04:16:19.349Z,99.90
2023-03-11T04:18:46.572Z,99.90
2023-03-11T04:21:13.543Z,99.90
2023-03-11T04:23:40.289Z,99.90
2023-03-11T04:26:07.108Z,99.90
2023-03-11T04:28:33.895Z,99.90
2023-03-11T04:31:00.751Z,99.90
2023-03-11T04:33:27.494Z,99.90
2023-03-11T04:35:54.305Z,99.90
2023-03-11T04:38:21.076Z,99.90
2023-03-11T04:40:47.971Z,99.90
2023-03-11T04:43:14.672Z,99.90
2023-03-11T04:45:42.474Z,99.90
2023-03-11T04:48:09.675Z,99.90
2023-03-11T04:50:36.391Z,99.90
2023-03-11T04:53:03.138Z,99.90
2023-03-11T04:55:30.188Z,99.90
2023-03-11T04:57:57.229Z,99.90
2023-03-11T05:00:25.111Z,99.90
2023-03-11T05:02:52.014Z,99.90
2023-03-11T05:05:22.050Z,99.90
2023-03-11T05:07:49.367Z,99.90
2023-03-11T05:10:22.371Z,99.90
2023-03-11T05:12:52.730Z,99.90
2023-03-11T05:15:19.786Z,99.90
2023-03-11T05:17:47.168Z,99.90
2023-03-11T05:20:15.790Z,99.90
2023-03-11T05:22:42.920Z,99.90
2023-03-11T05:25:09.921Z,99.90
2023-03-11T05:27:36.774Z,99.90
2023-03-11T05:30:04.183Z,99.90
2023-03-11T05:32:30.930Z,99.90
2023-03-11T05:34:57.653Z,99.90
2023-03-11T05:37:24.474Z,99.90
2023-03-11T05:39:52.620Z,99.90
2023-03-11T05:42:21.396Z,99.90
2023-03-11T05:44:48.595Z,99.90
2023-03-11T05:47:17.077Z,99.90
2023-03-11T05:49:43.885Z,99.90
2023-03-11T05:52:10.607Z,99.90
2023-03-11T05:54:37.329Z,99.90
2023-03-11T05:57:04.753Z,99.90
2023-03-11T05:59:32.627Z,99.90
2023-03-11T06:01:59.355Z,99.90
2023-03-11T06:04:26.252Z,99.90
2023-03-11T06:06:53.356Z,99.90
2023-03-11T06:09:20.046Z,99.90
2023-03-11T06:11:46.721Z,99.90
2023-03-11T06:14:14.696Z,99.90
2023-03-11T06:16:41.893Z,99.90
2023-03-11T06:19:09.215Z,99.90
2023-03-11T06:21:35.995Z,99.90
2023-03-11T06:24:02.734Z,99.90
2023-03-11T06:26:29.559Z,99.90
2023-03-11T06:28:56.238Z,99.90
2023-03-11T06:31:27.835Z,99.90
2023-03-11T06:33:58.805Z,99.90
2023-03-11T06:36:25.608Z,99.90
2023-03-11T06:38:53.824Z,99.90
2023-03-11T06:41:20.897Z,99.90
2023-03-11T06:43:47.806Z,99.90
2023-03-11T06:46:23.234Z,99.90
2023-03-11T06:48:52.329Z,99.90
2023-03-11T06:51:20.853Z,99.90
2023-03-11T06:53:52.587Z,99.90
2023-03-11T06:56:20.539Z,99.90
2023-03-11T06:58:48.104Z,99.90
2023-03-11T07:01:17.719Z,99.90
2023-03-11T07:03:46.776Z,99.90
2023-03-11T07:06:17.833Z,99.90
2023-03-11T07:08:46.507Z,99.90
2023-03-11T07:11:19.154Z,99.90
2023-03-11T07:13:46.503Z,99.90
2023-03-11T07:16:19.469Z,99.90
2023-03-11T07:18:48.665Z,99.90
2023-03-11T07:21:17.964Z,99.90
2023-03-11T07:23:44.899Z,99.90
2023-03-11T07:26:13.394Z,99.90
2023-03-11T07:28:40.866Z,99.90
2023-03-11T07:31:13.013Z,99.90
2023-03-11T07:33:40.136Z,99.90
2023-03-11T07:36:12.565Z,99.90
2023-03-11T07:38:40.596Z,99.90
2023-03-11T07:41:09.920Z,99.90
2023-03-11T07:43:36.630Z,99.90
2023-03-11T07:46:03.406Z,99.90
2023-03-11T07:48:30.558Z,99.90
2023-03-11T07:51:24.246Z,99.90
2023-03-11T07:53:53.491Z,99.90
2023-03-11T07:56:22.679Z,99.90
2023-03-11T07:58:49.663Z,99.90
2023-03-11T08:01:19.675Z,99.90
2023-03-11T08:03:49.818Z,99.90
2023-03-11T08:06:22.734Z,99.90
2023-03-11T08:08:51.517Z,99.90
2023-03-11T08:11:20.699Z,99.90
2023-03-11T08:13:48.291Z,99.90
2023-03-11T08:16:18.495Z,99.90
2023-03-11T08:18:47.314Z,99.90
2023-03-11T08:21:16.793Z,99.90
2023-03-11T08:23:46.130Z,99.90
2023-03-11T08:26:15.496Z,99.90
2023-03-11T08:28:43.179Z,99.90
2023-03-11T08:31:18.464Z,99.90
2023-03-11T08:33:46.758Z,99.90
2023-03-11T08:36:13.673Z,99.90
2023-03-11T08:38:40.583Z,99.90
2023-03-11T08:41:07.604Z,99.90
2023-03-11T08:43:34.630Z,99.90
2023-03-11T08:46:03.178Z,99.90
2023-03-11T08:48:30.122Z,99.90
2023-03-11T08:50:57.004Z,99.90
2023-03-11T08:53:23.970Z,99.90
2023-03-11T08:55:52.157Z,99.90
2023-03-11T08:58:19.963Z,99.90
2023-03-11T09:00:47.424Z,99.90
2023-03-11T09:03:14.108Z,99.90
2023-03-11T09:05:41.026Z,99.90
2023-03-11T09:08:07.864Z,99.90
2023-03-11T09:10:34.662Z,99.90
2023-03-11T09:13:01.369Z,99.90
2023-03-11T09:15:28.523Z,99.90
2023-03-11T09:17:55.845Z,99.90
2023-03-11T09:20:22.796Z,99.90
2023-03-11T09:22:49.710Z,99.90
2023-03-11T09:25:16.498Z,99.90
2023-03-11T09:27:43.310Z,99.90
2023-03-11T09:30:11.166Z,99.90
2023-03-11T09:32:37.919Z,99.90
2023-03-11T09:35:05.604Z,99.90
2023-03-11T09:37:32.630Z,99.90
2023-03-11T09:39:59.343Z,99.90
2023-03-11T09:42:39.014Z,99.90
2023-03-11T09:45:21.669Z,99.90
2023-03-11T09:47:55.996Z,99.90
2023-03-11T09:50:30.987Z,99.90
2023-03-11T09:53:10.254Z,99.90
2023-03-11T09:55:44.613Z,99.90
2023-03-11T09:58:24.937Z,99.60
2023-03-11T10:00:54.588Z,98.40
2023-03-11T10:03:34.372Z,97.40
2023-03-11T10:06:15.292Z,97.10
2023-03-11T10:09:06.206Z,97.00
2023-03-11T10:12:14.586Z,98.20
2023-03-11T10:15:02.983Z,98.50
2023-03-11T10:17:54.335Z,98.00
2023-03-11T10:20:27.456Z,96.10
2023-03-11T10:23:03.475Z,95.30
2023-03-11T10:25:38.606Z,94.80
2023-03-11T10:28:13.590Z,95.30
2023-03-11T10:30:45.026Z,94.70
2023-03-11T10:33:37.571Z,94.20
2023-03-11T10:36:17.354Z,94.30
2023-03-11T10:38:48.986Z,94.30
2023-03-11T10:41:37.572Z,93.90
2023-03-11T10:44:15.106Z,95.00
2023-03-11T10:46:41.940Z,95.70
2023-03-11T10:49:16.017Z,96.50
2023-03-11T10:51:46.725Z,97.20
2023-03-11T10:54:26.571Z,97.60
2023-03-11T10:57:02.479Z,98.30
2023-03-11T10:59:46.383Z,98.60
2023-03-11T11:02:27.017Z,98.80
2023-03-11T11:05:18.067Z,98.60
2023-03-11T11:07:46.939Z,98.60
2023-03-11T11:10:22.852Z,98.10
2023-03-11T11:13:09.107Z,99.00
2023-03-11T11:15:41.254Z,97.80
2023-03-11T11:18:16.918Z,94.60
2023-03-11T11:21:14.664Z,92.50
2023-03-11T11:23:49.781Z,96.00
2023-03-11T11:26:26.634Z,97.20
2023-03-11T11:29:12.489Z,97.20
2023-03-11T11:31:42.324Z,97.50
2023-03-11T11:34:30.729Z,97.50
2023-03-11T11:37:00.896Z,97.30
2023-03-11T11:39:30.878Z,96.90
2023-03-11T11:41:57.633Z,97.70
2023-03-11T11:44:32.217Z,97.10
2023-03-11T11:47:20.062Z,92.20
2023-03-11T11:49:56.834Z,93.80
2023-03-11T11:52:37.234Z,90.20
2023-03-11T11:55:17.440Z,91.40
2023-03-11T11:57:44.195Z,91.80
2023-03-11T12:00:25.001Z,92.40
2023-03-11T12:03:10.433Z,92.10
2023-03-11T12:05:52.177Z,92.60
2023-03-11T12:08:46.149Z,93.30
2023-03-11T12:11:34.280Z,94.80
2023-03-11T12:14:19.414Z,95.30
2023-03-11T12:17:04.479Z,94.20
2023-03-11T12:19:57.414Z,94.60
2023-03-11T12:22:41.011Z,87.10
2023-03-11T12:25:32.758Z,90.40
2023-03-11T12:28:17.011Z,85.60
2023-03-11T12:30:52.658Z,93.10
2023-03-11T12:33:41.099Z,91.40
2023-03-11T12:36:32.182Z,80.70
2023-03-11T12:39:01.134Z,80.70
2023-03-11T12:41:29.546Z,87.90
2023-03-11T12:43:59.433Z,90.50
2023-03-11T12:46:55.537Z,90.90
2023-03-11T12:49:25.406Z,90.20
2023-03-11T12:52:14.172Z,83.60
2023-03-11T12:54:45.705Z,73.30
2023-03-11T12:57:18.658Z,78.40
2023-03-11T12:59:57.339Z,77.00
2023-03-11T13:02:47.473Z,71.80
2023-03-11T13:05:38.954Z,75.90
2023-03-11T13:08:15.049Z,83.10
2023-03-11T13:10:44.245Z,85.70
2023-03-11T13:13:30.061Z,81.90
2023-03-11T13:15:57.765Z,67.90
2023-03-11T13:18:30.683Z,63.60
2023-03-11T13:21:02.063Z,63.90
2023-03-11T13:23:37.277Z,66.20
2023-03-11T13:26:09.884Z,64.50
2023-03-11T13:28:56.907Z,66.90
2023-03-11T13:31:40.005Z,67.90
2023-03-11T13:34:28.233Z,72.70
2023-03-11T13:37:13.219Z,72.90
2023-03-11T13:40:08.007Z,72.20
2023-03-11T13:42:42.398Z,70.20
2023-03-11T13:45:27.760Z,66.80
2023-03-11T13:48:17.907Z,69.50
2023-03-11T13:51:18.238Z,69.40
2023-03-11T13:53:51.868Z,66.70
2023-03-11T13:56:24.958Z,65.20
2023-03-11T13:58:51.691Z,63.40
2023-03-11T14:01:19.032Z,60.90
2023-03-11T14:03:47.828Z,60.20
2023-03-11T14:06:20.916Z,60.60
2023-03-11T14:08:55.879Z,58.60
2023-03-11T14:11:29.147Z,54.20
2023-03-11T14:13:55.846Z,52.70
2023-03-11T14:16:44.016Z,54.90
2023-03-11T14:19:19.013Z,52.20
2023-03-11T14:21:51.363Z,51.60
2023-03-11T14:24:29.818Z,52.30
2023-03-11T14:26:59.698Z,51.30
2023-03-11T14:29:36.681Z,50.30
2023-03-11T14:32:36.038Z,51.10
2023-03-11T14:35:18.241Z,46.40
2023-03-11T14:37:45.174Z,45.20
2023-03-11T14:40:30.259Z,45.10
2023-03-11T14:43:01.773Z,46.50
2023-03-11T14:45:36.449Z,47.30
2023-03-11T14:48:09.856Z,47.60
2023-03-11T14:50:36.961Z,47.90
2023-03-11T14:53:13.954Z,46.40
2023-03-11T14:55:46.475Z,46.90
2023-03-11T14:58:23.820Z,47.60
2023-03-11T15:01:03.898Z,46.20
2023-03-11T15:03:39.927Z,46.60
2023-03-11T15:06:09.891Z,47.30
2023-03-11T15:08:46.584Z,47.30
2023-03-11T15:11:13.335Z,47.00
2023-03-11T15:13:47.358Z,47.00
2023-03-11T15:16:25.505Z,46.30
2023-03-11T15:18:54.362Z,43.60
2023-03-11T15:21:23.892Z,45.50
2023-03-11T15:23:56.423Z,45.90
2023-03-11T15:26:32.018Z,45.60
2023-03-11T15:29:06.947Z,44.60
2023-03-11T15:31:37.103Z,43.10
2023-03-11T15:34:17.479Z,43.10
2023-03-11T15:36:48.533Z,42.50
2023-03-11T15:39:20.902Z,40.40
2023-03-11T15:42:08.073Z,40.00
2023-03-11T15:44:40.787Z,41.40
2023-03-11T15:47:16.056Z,42.20
2023-03-11T15:49:43.272Z,43.00
2023-03-11T15:52:10.394Z,43.50
2023-03-11T15:54:37.870Z,44.20
2023-03-11T15:57:07.726Z,44.70
2023-03-11T15:59:36.780Z,47.50
2023-03-11T16:02:04.451Z,47.10
2023-03-11T16:04:31.443Z,45.70
2023-03-11T16:07:07.492Z,43.90
2023-03-11T16:09:35.553Z,41.10
2023-03-11T16:12:09.246Z,38.10
2023-03-11T16:14:35.976Z,34.40
2023-03-11T16:17:02.722Z,32.80
2023-03-11T16:19:29.457Z,31.10
2023-03-11T16:21:56.363Z,32.30
2023-03-11T16:24:25.603Z,30.70
2023-03-11T16:26:53.453Z,29.00
2023-03-11T16:29:20.601Z,29.30
2023-03-11T16:31:48.858Z,28.70
2023-03-11T16:34:15.646Z,29.70
2023-03-11T16:36:42.352Z,29.80
2023-03-11T16:39:09.131Z,31.10
2023-03-11T16:41:43.991Z,32.90
2023-03-11T16:44:11.620Z,34.60
2023-03-11T16:46:38.657Z,35.80
2023-03-11T16:49:06.009Z,35.60
2023-03-11T16:51:33.178Z,35.40
2023-03-11T16:54:00.409Z,35.90
2023-03-11T16:56:27.884Z,34.00
2023-03-11T16:58:54.798Z,33.70
2023-03-11T17:01:22.171Z,33.90
2023-03-11T17:03:50.866Z,33.90
2023-03-11T17:06:18.866Z,33.40
2023-03-11T17:08:49.226Z,33.30
2023-03-11T17:11:24.315Z,32.50
2023-03-11T17:13:51.272Z,34.10
2023-03-11T17:16:18.030Z,35.80
2023-03-11T17:18:44.776Z,37.40
2023-03-11T17:21:14.241Z,38.70
2023-03-11T17:23:41.381Z,39.80
2023-03-11T17:26:14.029Z,40.70
2023-03-11T17:28:42.235Z,42.50
2023-03-11T17:31:16.282Z,42.30
2023-03-11T17:33:43.360Z,42.90
2023-03-11T17:36:13.385Z,43.60
2023-03-11T17:38:40.239Z,45.10
2023-03-11T17:41:08.425Z,44.70
2023-03-11T17:43:35.690Z,45.20
2023-03-11T17:46:06.159Z,45.70
2023-03-11T17:48:32.978Z,46.90
2023-03-11T17:51:03.988Z,46.40
2023-03-11T17:53:30.775Z,46.60
2023-03-11T17:55:59.301Z,46.70
2023-03-11T17:58:26.053Z,47.00
2023-03-11T18:00:52.751Z,47.40
2023-03-11T18:03:19.416Z,48.90
2023-03-11T18:05:56.676Z,48.60
2023-03-11T18:08:23.542Z,49.50
2023-03-11T18:10:55.049Z,49.90
2023-03-11T18:13:22.106Z,51.40
2023-03-11T18:15:57.188Z,51.10
2023-03-11T18:18:23.941Z,51.60
2023-03-11T18:20:50.777Z,52.10
2023-03-11T18:23:17.847Z,52.60
2023-03-11T18:25:45.270Z,53.00
2023-03-11T18:28:11.945Z,53.40
2023-03-11T18:30:38.659Z,53.70
2023-03-11T18:33:05.498Z,53.90
2023-03-11T18:35:32.291Z,54.40
2023-03-11T18:37:59.075Z,55.50
2023-03-11T18:40:27.924Z,55.60
2023-03-11T18:42:54.632Z,54.90
2023-03-11T18:45:21.452Z,55.00
2023-03-11T18:47:48.179Z,55.10
2023-03-11T18:50:14.904Z,55.30
2023-03-11T18:52:41.676Z,56.30
2023-03-11T18:55:08.737Z,56.40
2023-03-11T18:57:35.547Z,55.80
2023-03-11T19:00:02.429Z,55.90
2023-03-11T19:02:29.728Z,56.10
2023-03-11T19:04:56.612Z,56.30
2023-03-11T19:07:23.377Z,56.60
2023-03-11T19:09:50.247Z,56.80
2023-03-11T19:12:16.961Z,57.00
2023-03-11T19:14:43.667Z,57.20
2023-03-11T19:17:12.835Z,57.60
2023-03-11T19:19:39.771Z,57.90
2023-03-11T19:22:06.541Z,58.10
2023-03-11T19:24:33.268Z,58.20
2023-03-11T19:27:00.013Z,58.50
2023-03-11T19:29:26.857Z,59.70
2023-03-11T19:31:53.722Z,59.90
2023-03-11T19:34:21.646Z,59.30
2023-03-11T19:36:48.414Z,59.70
2023-03-11T19:39:15.145Z,60.00
2023-03-11T19:41:41.964Z,61.00
2023-03-11T19:44:09.875Z,60.50
2023-03-11T19:46:36.852Z,61.60
2023-03-11T19:49:04.285Z,61.10
2023-03-11T19:51:46.388Z,61.40
2023-03-11T19:54:16.705Z,61.60
2023-03-11T19:56:43.722Z,62.40
2023-03-11T19:59:10.587Z,61.80
2023-03-11T20:01:37.315Z,61.90
2023-03-11T20:04:04.962Z,61.90
2023-03-11T20:06:31.862Z,61.90
2023-03-11T20:08:58.891Z,61.90
2023-03-11T20:11:25.739Z,62.20
2023-03-11T20:13:52.738Z,63.20
2023-03-11T20:16:19.759Z,62.70
2023-03-11T20:18:50.309Z,63.00
2023-03-11T20:21:17.418Z,63.40
2023-03-11T20:23:44.298Z,63.70
2023-03-11T20:26:14.517Z,64.10
2023-03-11T20:28:41.855Z,64.60
2023-03-11T20:31:16.520Z,65.80
2023-03-11T20:33:44.024Z,66.30
2023-03-11T20:36:15.502Z,66.70
2023-03-11T20:38:43.133Z,66.30
2023-03-11T20:41:10.525Z,66.40
2023-03-11T20:43:37.858Z,66.60
2023-03-11T20:46:05.313Z,66.60
2023-03-11T20:48:32.415Z,67.40
2023-03-11T20:51:01.311Z,66.80
2023-03-11T20:53:30.648Z,66.90
2023-03-11T20:55:59.292Z,67.00
2023-03-11T20:58:26.554Z,67.70
2023-03-11T21:00:53.319Z,67.10
2023-03-11T21:03:20.272Z,67.20
2023-03-11T21:05:47.529Z,67.30
2023-03-11T21:08:14.311Z,67.50
2023-03-11T21:10:41.040Z,67.60
2023-03-11T21:13:08.017Z,67.80
2023-03-11T21:15:36.253Z,68.00
2023-03-11T21:18:03.861Z,68.90
2023-03-11T21:20:30.626Z,68.40
2023-03-11T21:22:57.323Z,68.60
2023-03-11T21:25:24.136Z,68.80
2023-03-11T21:27:50.943Z,69.00
2023-03-11T21:30:17.792Z,69.40
2023-03-11T21:32:44.744Z,69.80
2023-03-11T21:35:11.810Z,70.80
2023-03-11T21:37:38.622Z,70.50
2023-03-11T21:40:07.462Z,71.60
2023-03-11T21:42:34.221Z,71.20
2023-03-11T21:45:01.088Z,71.50
2023-03-11T21:47:27.866Z,71.70
2023-03-11T21:49:54.732Z,72.10
2023-03-11T21:52:21.463Z,72.20
2023-03-11T21:54:48.409Z,72.50
2023-03-11T21:57:15.423Z,72.60
2023-03-11T21:59:42.188Z,73.50
2023-03-11T22:02:14.856Z,72.90
2023-03-11T22:04:42.236Z,73.00
2023-03-11T22:07:09.994Z,73.90
2023-03-11T22:09:37.124Z,73.50
2023-03-11T22:12:04.237Z,74.40
2023-03-11T22:14:31.067Z,74.00
2023-03-11T22:16:57.967Z,74.10
2023-03-11T22:19:24.903Z,74.90
2023-03-11T22:21:51.796Z,74.40
2023-03-11T22:24:18.477Z,74.60
2023-03-11T22:26:45.430Z,74.70
2023-03-11T22:29:13.633Z,74.80
2023-03-11T22:31:40.607Z,74.80
2023-03-11T22:34:07.374Z,74.70
2023-03-11T22:36:34.143Z,74.60
2023-03-11T22:39:02.816Z,75.20
2023-03-11T22:41:29.715Z,74.40
2023-03-11T22:43:56.472Z,74.20
2023-03-11T22:46:23.231Z,74.00
2023-03-11T22:48:49.978Z,74.00
2023-03-11T22:51:17.168Z,73.90
2023-03-11T22:53:43.956Z,74.10
2023-03-11T22:56:13.319Z,73.60
2023-03-11T22:58:41.038Z,73.50
2023-03-11T23:01:08.299Z,73.40
2023-03-11T23:03:35.602Z,73.30
2023-03-11T23:06:04.944Z,73.00
2023-03-11T23:08:32.162Z,72.90
2023-03-11T23:11:06.155Z,72.80
2023-03-11T23:13:35.749Z,72.70
2023-03-11T23:16:32.877Z,72.70
2023-03-11T23:19:01.064Z,72.70
2023-03-11T23:21:33.002Z,72.60
2023-03-11T23:24:01.273Z,72.50
2023-03-11T23:26:29.926Z,72.40
2023-03-11T23:28:56.766Z,72.30
2023-03-11T23:31:25.906Z,72.30
2023-03-11T23:33:52.898Z,72.40
2023-03-11T23:36:22.075Z,73.10
2023-03-11T23:38:50.805Z,72.50
2023-03-11T23:41:19.732Z,72.60
2023-03-11T23:43:46.812Z,72.70
2023-03-11T23:46:14.114Z,72.80
2023-03-11T23:48:41.100Z,73.70
2023-03-11T23:51:09.522Z,73.30
2023-03-11T23:53:37.344Z,74.30
2023-03-11T23:56:10.218Z,73.90
2023-03-11T23:58:37.008Z,74.20
